createdAt,value
2019-02-26T00:03:35.287Z,18.37
2019-02-26T00:11:41.355Z,18.30
2019-02-26T00:15:45.910Z,18.35
2019-02-26T00:19:50.135Z,17.98
2019-02-26T00:23:53.695Z,18.80
2019-02-26T00:27:58.649Z,18.85
2019-02-26T00:32:02.319Z,20.67
2019-02-26T00:36:07.166Z,19.48
2019-02-26T00:40:12.379Z,19.23
2019-02-26T00:44:18.612Z,18.90
2019-02-26T00:48:21.973Z,18.23
2019-02-26T00:52:25.534Z,20.97
2019-02-26T00:56:29.837Z,19.57
2019-02-26T01:00:35.490Z,20.50
2019-02-26T01:04:41.369Z,21.47
2019-02-26T01:08:45.259Z,20.72
2019-02-26T01:12:49.899Z,19.95
2019-02-26T01:16:53.449Z,20.60
2019-02-26T01:20:57.902Z,19.57
2019-02-26T01:25:02.229Z,20.68
2019-02-26T01:29:05.856Z,18.98
2019-02-26T01:33:09.768Z,18.45
2019-02-26T01:37:13.483Z,18.73
2019-02-26T01:41:18.004Z,20.52
2019-02-26T01:45:24.265Z,18.30
2019-02-26T01:49:28.488Z,18.95
2019-02-26T01:53:32.176Z,20.00
2019-02-26T01:57:35.998Z,20.77
2019-02-26T02:01:42.153Z,21.00
2019-02-26T02:05:45.760Z,21.80
2019-02-26T02:09:51.300Z,21.80
2019-02-26T02:13:55.169Z,21.07
2019-02-26T02:17:59.542Z,22.32
2019-02-26T02:22:03.931Z,21.48
2019-02-26T02:26:09.381Z,23.80
2019-02-26T02:30:22.621Z,21.85
2019-02-26T02:34:23.688Z,21.37
2019-02-26T02:38:26.687Z,21.50
2019-02-26T02:42:30.238Z,21.20
2019-02-26T02:46:34.240Z,21.05
2019-02-26T02:50:38.921Z,21.73
2019-02-26T02:54:44.206Z,19.80
2019-02-26T02:58:50.994Z,19.30
2019-02-26T03:06:58.750Z,20.68
2019-02-26T03:11:02.482Z,22.22
2019-02-26T03:15:10.158Z,19.82
2019-02-26T03:19:14.543Z,20.23
2019-02-26T03:23:19.929Z,22.95
2019-02-26T03:27:27.748Z,23.00
2019-02-26T03:35:33.569Z,22.00
2019-02-26T03:39:37.129Z,22.32
2019-02-26T03:43:41.789Z,22.02
2019-02-26T03:47:45.537Z,20.60
2019-02-26T03:51:49.117Z,21.07
2019-02-26T03:55:52.747Z,23.13
2019-02-26T03:59:56.376Z,22.00
2019-02-26T04:04:02.348Z,22.70
2019-02-26T04:08:05.230Z,20.72
2019-02-26T04:12:11.227Z,21.12
2019-02-26T04:20:17.013Z,23.73
2019-02-26T04:24:20.596Z,20.57
2019-02-26T04:28:44.793Z,20.88
2019-02-26T04:33:11.657Z,22.80
2019-02-26T04:37:27.487Z,20.43
2019-02-26T04:41:37.446Z,19.37
2019-02-26T04:45:50.019Z,25.12
2019-02-26T04:49:54.398Z,24.10
2019-02-26T04:53:59.494Z,24.07
2019-02-26T04:58:03.999Z,25.27
2019-02-26T05:02:07.575Z,24.52
2019-02-26T05:06:11.137Z,24.47
2019-02-26T05:10:14.706Z,23.55
2019-02-26T05:14:22.909Z,24.85
2019-02-26T05:18:25.874Z,26.15
2019-02-26T05:22:31.001Z,26.93
2019-02-26T05:26:33.976Z,23.45
2019-02-26T05:30:38.302Z,24.65
2019-02-26T05:34:45.297Z,24.57
2019-02-26T05:38:49.285Z,25.62
2019-02-26T05:42:53.908Z,25.23
2019-02-26T05:46:58.771Z,25.17
2019-02-26T05:55:08.435Z,23.70
2019-02-26T05:59:15.903Z,23.07
2019-02-26T06:03:20.556Z,26.05
2019-02-26T06:07:27.164Z,24.47
2019-02-26T06:11:33.210Z,26.62
2019-02-26T06:19:44.970Z,26.60
2019-02-26T06:23:53.250Z,24.35
2019-02-26T06:27:56.810Z,24.25
2019-02-26T06:32:14.543Z,27.75
2019-02-26T06:36:19.234Z,26.33
2019-02-26T06:40:23.750Z,26.10
2019-02-26T06:44:27.306Z,25.97
2019-02-26T06:48:32.335Z,26.02
2019-02-26T06:52:38.191Z,26.27
2019-02-26T06:56:43.768Z,26.52
2019-02-26T07:00:48.159Z,26.40
2019-02-26T07:04:51.980Z,28.42
2019-02-26T07:08:55.625Z,28.52
2019-02-26T07:12:59.190Z,29.77
2019-02-26T07:17:02.793Z,31.57
2019-02-26T07:21:06.364Z,28.85
2019-02-26T07:25:13.063Z,31.48
2019-02-26T07:29:17.565Z,29.87
2019-02-26T07:33:20.959Z,30.45
2019-02-26T07:37:24.634Z,31.02
2019-02-26T07:41:30.337Z,27.93
2019-02-26T07:45:33.445Z,31.97
2019-02-26T07:49:37.038Z,29.50
2019-02-26T07:53:44.389Z,32.93
2019-02-26T07:57:48.000Z,34.60
2019-02-26T08:01:51.091Z,32.17
2019-02-26T08:05:54.652Z,32.50
2019-02-26T08:09:58.218Z,32.00
2019-02-26T08:14:01.765Z,32.67
2019-02-26T08:18:05.400Z,31.62
2019-02-26T08:22:09.020Z,31.65
2019-02-26T08:26:12.570Z,31.95
2019-02-26T08:30:18.790Z,29.10
2019-02-26T08:34:21.892Z,31.80
2019-02-26T08:38:29.437Z,33.13
2019-02-26T08:42:30.681Z,30.90
2019-02-26T08:46:34.244Z,31.90
2019-02-26T08:50:38.975Z,32.93
2019-02-26T08:54:43.023Z,31.43
2019-02-26T08:58:46.607Z,30.90
2019-02-26T09:02:53.686Z,31.75
2019-02-26T09:06:57.088Z,32.70
2019-02-26T09:11:01.544Z,33.70
2019-02-26T09:15:09.151Z,32.70
2019-02-26T09:19:12.726Z,31.68
2019-02-26T09:23:18.834Z,32.48
2019-02-26T09:27:21.546Z,31.57
2019-02-26T09:31:25.110Z,32.70
2019-02-26T09:35:30.696Z,32.98
2019-02-26T09:39:36.045Z,31.33
2019-02-26T09:43:40.843Z,33.10
2019-02-26T09:47:44.939Z,34.67
2019-02-26T09:51:49.623Z,34.67
2019-02-26T09:55:53.237Z,32.67
2019-02-26T09:59:58.182Z,33.55
2019-02-26T10:04:03.613Z,35.70
2019-02-26T10:08:07.253Z,34.17
2019-02-26T10:12:15.127Z,33.70
2019-02-26T10:16:16.027Z,34.97
2019-02-26T10:20:27.303Z,33.23
2019-02-26T10:24:32.158Z,34.80
2019-02-26T10:28:37.326Z,32.90
2019-02-26T10:32:40.383Z,31.90
2019-02-26T10:36:46.482Z,30.43
2019-02-26T10:40:53.961Z,27.67
2019-02-26T10:44:54.399Z,27.77
2019-02-26T10:48:57.972Z,25.60
2019-02-26T10:53:07.253Z,24.52
2019-02-26T10:57:08.551Z,19.10
2019-02-26T11:01:11.960Z,18.42
2019-02-26T11:05:19.711Z,17.87
2019-02-26T11:09:25.392Z,18.43
2019-02-26T11:13:26.336Z,20.60
2019-02-26T11:17:31.620Z,22.13
2019-02-26T11:21:35.286Z,23.03
2019-02-26T11:25:39.147Z,24.40
2019-02-26T11:29:42.703Z,23.60
2019-02-26T11:33:48.077Z,22.98
2019-02-26T11:37:52.354Z,22.47
2019-02-26T11:41:58.649Z,22.32
2019-02-26T11:46:03.726Z,23.57
2019-02-26T11:50:11.855Z,23.83
2019-02-26T11:54:17.554Z,24.50
2019-02-26T11:58:22.318Z,24.37
2019-02-26T12:02:31.368Z,24.90
2019-02-26T12:06:31.339Z,22.97
2019-02-26T12:10:35.904Z,23.65
2019-02-26T12:14:43.109Z,24.33
2019-02-26T12:18:46.969Z,24.07
2019-02-26T12:22:52.362Z,23.30
2019-02-26T12:26:56.328Z,23.03
2019-02-26T12:31:01.250Z,23.12
2019-02-26T12:35:08.731Z,24.33
2019-02-26T12:39:12.250Z,22.25
2019-02-26T12:43:18.338Z,22.60
2019-02-26T12:47:21.780Z,25.00
2019-02-26T12:51:28.178Z,25.50
2019-02-26T12:55:34.896Z,23.50
2019-02-26T12:59:36.890Z,23.47
2019-02-26T13:03:42.833Z,24.35
2019-02-26T13:07:45.746Z,25.17
2019-02-26T13:12:01.199Z,22.67
2019-02-26T13:15:54.543Z,25.40
2019-02-26T13:19:58.879Z,23.90
2019-02-26T13:24:11.660Z,25.02
2019-02-26T13:28:08.591Z,25.95
2019-02-26T13:32:13.665Z,25.92
2019-02-26T13:36:17.699Z,26.05
2019-02-26T13:40:23.187Z,26.48
2019-02-26T13:44:26.761Z,26.33
2019-02-26T13:48:30.405Z,26.80
2019-02-26T13:52:33.998Z,27.40
2019-02-26T13:56:37.496Z,27.02
2019-02-26T14:00:41.424Z,27.30
2019-02-26T14:04:44.991Z,27.15
2019-02-26T14:08:48.572Z,26.87
2019-02-26T14:12:52.427Z,26.52
2019-02-26T14:16:55.986Z,26.42
2019-02-26T14:20:59.547Z,25.68
2019-02-26T14:25:03.116Z,25.03
2019-02-26T14:29:06.689Z,26.50
2019-02-26T14:33:10.259Z,24.67
2019-02-26T14:37:13.810Z,25.80
2019-02-26T14:41:17.393Z,18.12
2019-02-26T14:45:22.458Z,18.57
2019-02-26T14:49:26.895Z,19.37
2019-02-26T14:53:30.486Z,19.50
2019-02-26T14:57:34.051Z,18.57
2019-02-26T15:01:37.615Z,19.15
2019-02-26T15:05:41.179Z,20.27
2019-02-26T15:09:44.748Z,19.48
2019-02-26T15:13:48.332Z,19.20
2019-02-26T15:17:53.008Z,19.55
2019-02-26T15:21:57.245Z,19.02
2019-02-26T15:26:00.978Z,19.02
2019-02-26T15:30:07.355Z,18.80
2019-02-26T15:34:10.951Z,19.93
2019-02-26T15:38:14.531Z,20.20
2019-02-26T15:42:19.140Z,21.37
2019-02-26T15:46:23.303Z,19.57
2019-02-26T15:50:26.858Z,22.02
2019-02-26T15:54:30.459Z,21.20
2019-02-26T15:58:34.321Z,22.67
2019-02-26T16:02:38.291Z,22.22
2019-02-26T16:06:41.866Z,23.40
2019-02-26T16:10:45.633Z,23.65
2019-02-26T16:14:49.222Z,24.32
2019-02-26T16:18:52.784Z,24.85
2019-02-26T16:22:56.401Z,26.13
2019-02-26T16:26:59.915Z,25.88
2019-02-26T16:31:04.625Z,25.82
2019-02-26T16:35:08.369Z,25.48
2019-02-26T16:39:11.928Z,25.80
2019-02-26T16:43:17.073Z,25.30
2019-02-26T16:47:20.706Z,27.23
2019-02-26T16:51:24.386Z,25.85
2019-02-26T16:55:27.965Z,26.30
2019-02-26T16:59:31.527Z,26.52
2019-02-26T17:03:35.086Z,23.65
2019-02-26T17:07:38.657Z,23.37
2019-02-26T17:11:44.446Z,21.48
2019-02-26T17:15:47.590Z,23.83
2019-02-26T17:19:51.166Z,21.50
2019-02-26T17:23:54.749Z,24.52
2019-02-26T17:27:58.315Z,21.93
2019-02-26T17:32:04.754Z,23.12
2019-02-26T17:36:07.112Z,22.53
2019-02-26T17:40:16.474Z,23.53
2019-02-26T17:44:20.006Z,22.90
2019-02-26T17:48:23.573Z,20.27
2019-02-26T17:52:27.405Z,21.80
2019-02-26T17:56:30.998Z,24.30
2019-02-26T18:00:36.245Z,22.87
2019-02-26T18:04:39.810Z,20.70
2019-02-26T18:08:43.385Z,22.42
2019-02-26T18:12:46.998Z,25.00
2019-02-26T18:16:50.847Z,24.02
2019-02-26T18:20:54.487Z,24.00
2019-02-26T18:24:58.093Z,17.92
2019-02-26T18:29:01.674Z,20.17
2019-02-26T18:33:05.324Z,19.55
2019-02-26T18:37:08.898Z,19.60
2019-02-26T18:41:12.479Z,20.33
2019-02-26T18:45:29.655Z,20.23
2019-02-26T18:49:33.202Z,20.48
2019-02-26T18:53:36.774Z,19.95
2019-02-26T18:57:43.337Z,17.82
2019-02-26T19:01:46.917Z,19.27
2019-02-26T19:05:53.808Z,20.65
2019-02-26T19:09:55.689Z,22.13
2019-02-26T19:13:59.241Z,22.35
2019-02-26T19:18:03.430Z,17.70
2019-02-26T19:22:07.184Z,18.40
2019-02-26T19:26:13.543Z,17.75
2019-02-26T19:30:18.282Z,19.87
2019-02-26T19:34:21.841Z,23.77
2019-02-26T19:38:27.278Z,24.35
2019-02-26T19:42:30.638Z,18.80
2019-02-26T19:46:34.202Z,16.50
2019-02-26T19:50:37.760Z,19.23
2019-02-26T19:54:42.000Z,17.82
2019-02-26T19:58:46.083Z,18.60
2019-02-26T20:02:49.673Z,17.02
2019-02-26T20:06:53.268Z,15.43
2019-02-26T20:10:57.804Z,16.70
2019-02-26T20:15:01.483Z,18.05
2019-02-26T20:19:05.119Z,11.73
2019-02-26T20:23:08.709Z,15.03
2019-02-26T20:27:12.288Z,14.90
2019-02-26T20:31:15.988Z,14.70
2019-02-26T20:35:19.540Z,18.42
2019-02-26T20:39:23.174Z,20.82
2019-02-26T20:43:26.768Z,14.45
2019-02-26T20:47:31.679Z,13.78
2019-02-26T20:51:35.557Z,14.47
2019-02-26T20:55:39.117Z,13.45
2019-02-26T20:59:42.682Z,14.47
2019-02-26T21:03:46.250Z,13.45
2019-02-26T21:07:49.863Z,13.50
2019-02-26T21:11:53.590Z,14.33
2019-02-26T21:15:58.651Z,15.43
2019-02-26T21:20:02.207Z,21.82
2019-02-26T21:24:05.799Z,14.15
2019-02-26T21:28:09.382Z,15.55
2019-02-26T21:32:12.951Z,23.12
2019-02-26T21:36:16.506Z,23.05
2019-02-26T21:40:20.069Z,20.57
2019-02-26T21:44:23.667Z,15.65
2019-02-26T21:48:27.258Z,23.98
2019-02-26T21:52:30.815Z,18.05
2019-02-26T21:56:34.379Z,20.72
2019-02-26T22:00:39.142Z,20.08
2019-02-26T22:08:46.138Z,14.03
2019-02-26T22:12:49.748Z,15.53
2019-02-26T22:16:53.303Z,13.38
2019-02-26T22:20:56.866Z,13.58
2019-02-26T22:25:09.264Z,13.08
2019-02-26T22:29:07.938Z,25.63
2019-02-26T22:33:19.002Z,27.17
2019-02-26T22:37:26.998Z,27.00
2019-02-26T22:41:35.117Z,26.07
2019-02-26T22:45:38.919Z,23.70
2019-02-26T22:49:42.504Z,26.50
2019-02-26T22:53:46.076Z,25.48
2019-02-26T22:57:49.630Z,23.75
2019-02-26T23:01:54.798Z,22.32
2019-02-26T23:05:59.008Z,24.70
2019-02-26T23:10:03.174Z,25.90
2019-02-26T23:14:07.292Z,19.50
2019-02-26T23:18:10.837Z,23.20
2019-02-26T23:22:14.390Z,25.40
2019-02-26T23:26:18.122Z,18.25
2019-02-26T23:30:21.862Z,17.05
2019-02-26T23:34:25.449Z,19.25
2019-02-26T23:38:28.994Z,20.55
2019-02-26T23:42:32.552Z,17.98
2019-02-26T23:46:36.483Z,18.85
2019-02-26T23:50:40.059Z,17.67
2019-02-26T23:54:43.634Z,17.10
2019-02-26T23:58:47.198Z,16.87
